Syracuse, NY

6:00 PM EDT on April 18, 2015 (GMT -0400)
MoST* - Armory Square | | Change Station
CLOSE
Current Station
Personal Weather Station
Location: Syracuse, NY
Elevation: 400 ft
Nearby Weather Stations
Active Advisory: Special Statement

Elev 400 ft 43.05 °N, 76.16 °W | Updated 8 seconds ago

Clear
Clear
64.9 °F
Feels Like 64.9 °F
N
9.0
Wind Variable Wind from NW
Gusts 15.0 mph

Today
High -- | Low -- °F
--% Chance of Precip.
Yesterday
High -- | Low -- °F
Precip. -- in
6:18 AM 7:50 PM
New Moon, 0% visible
Pressure 30.03 in
Visibility 10.0 miles
Clouds Few 5000 ft
Dew Point 26 °F
Humidity 23%
Rainfall 0.00 in
Snow Depth Not available.
UV 0.6 out of 12
Pollen 10.10 out of 12
Air Quality Not available.
Flu Activity Widespread
METAR KSYR 182154Z 34017G21KT 10SM FEW050 18/M02 A3004 RMK AO2 SLP169 T01831022

More Conditions Fewer Conditions

Pressure 30.03 in
Visibility 10.0 miles
Clouds Few 5000 ft
Dew Point 26 °F
Humidity 23%
Rainfall 0.00 in
Snow Depth Not available.
UV 0.6 out of 12
Pollen 10.10 out of 12
Air Quality Not available.
Flu Activity Widespread
METAR KSYR 182154Z 34017G21KT 10SM FEW050 18/M02 A3004 RMK AO2 SLP169 T01831022

More Conditions Fewer Conditions

10-Day Weather Forecast

Almanac

Astronomy

Apr. 18, 2015 Rise Set
Actual Time
Civil Twilight
Nautical Twilight
Astronomical Twilight
Moon
Length of Visible Light
Length of Day
Tomorrow will be .
, % of the Moon is Illuminated

Today's Extremes

State Highs State Lows

Community

WunderPhotos

Upload Photos

1,814,549 photos uploaded!

WunderBlogs® & News

Nearby

Air Quality

  Air Quality AQ Index Pollutant
Not available.

Snow Depth

Station Depth Elevation

Earthquake Activity

City Distance Mag. Time & Date
Minimum magnitude displayed is 2.5.

Coastal Water Temperatures

Place Temperature

Stations

Nearby Weather Stations

Station Location Temp. Windchill Dew Point Humidity Wind Precip. Elev Updated Type
                   
Special Statement
Statement as of 6:54 AM EDT on April 18, 2015

Weather conditions this afternoon will be favorable for the
spread of outdoor fires due to dry fine fuels, low relative
humidity levels, and gusty winds though this area falls just
short of red flag warning criteria due to recent rainfall.

Conditions will improve after sunset as winds die down and
relative humidities increase above 30 percent.